Time;durP1;ratioP1;P1;durP2;ratioP2;P2;SDS_P1;SDS_P2;PMS_P1;PMS_P2;Temp;Humidity;BMP_temperature;BMP_pressure;BME280_temperature;BME280_humidity;BME280_pressure;Samples;Min_cycle;Max_cycle;Signal;HPM_P1;HPM_P2
2021/04/22 00:01:31;;;;;;;10.90;1.57;;;7.80;91.00;;;;;;4973147;28;20034;-64
2021/04/22 00:03:57;;;;;;;5.03;0.77;;;7.70;89.90;;;;;;4990010;28;20034;-64
2021/04/22 00:06:25;;;;;;;3.90;1.03;;;7.60;90.00;;;;;;4990341;28;20041;-64
2021/04/22 00:08:53;;;;;;;10.53;1.10;;;7.50;90.50;;;;;;4977125;28;20031;-64
2021/04/22 00:11:19;;;;;;;10.53;1.83;;;7.40;90.80;;;;;;4991039;28;20225;-64
2021/04/22 00:13:45;;;;;;;3.43;1.33;;;7.40;90.90;;;;;;4990150;28;20358;-64
2021/04/22 00:16:11;;;;;;;8.33;0.63;;;7.40;91.10;;;;;;4990553;28;20124;-64
2021/04/22 00:18:37;;;;;;;8.73;2.77;;;7.40;91.40;;;;;;4989969;28;20767;-64
2021/04/22 00:21:03;;;;;;;6.63;0.87;;;7.40;91.90;;;;;;4976660;28;20035;-64
2021/04/22 00:23:29;;;;;;;2.93;1.13;;;7.40;92.20;;;;;;4972913;28;20048;-65
2021/04/22 00:25:55;;;;;;;7.73;1.53;;;7.40;92.40;;;;;;4990315;28;20498;-64
2021/04/22 00:28:26;;;;;;;7.07;1.67;;;7.40;92.70;;;;;;4990750;28;20038;-64
2021/04/22 00:30:54;;;;;;;5.23;0.87;;;7.40;93.00;;;;;;4972758;28;20018;-64
2021/04/22 00:33:24;;;;;;;6.43;0.87;;;7.40;93.00;;;;;;4990348;28;20149;-64
2021/04/22 00:35:50;;;;;;;4.07;1.10;;;7.40;93.10;;;;;;4990163;28;20042;-64
2021/04/22 00:38:17;;;;;;;13.97;3.20;;;7.30;93.20;;;;;;4973026;28;20049;-64
2021/04/22 00:40:44;;;;;;;11.07;2.90;;;7.20;94.50;;;;;;4989239;28;20026;-64
2021/04/22 00:43:17;;;;;;;3.47;1.33;;;7.20;94.40;;;;;;4989274;28;20076;-64
2021/04/22 00:45:46;;;;;;;5.40;1.57;;;7.20;93.60;;;;;;4990324;28;20049;-64
2021/04/22 00:48:14;;;;;;;2.57;0.80;;;7.20;93.80;;;;;;4989858;28;20033;-65
2021/04/22 00:50:43;;;;;;;1.60;0.60;;;7.10;93.80;;;;;;4989792;28;20018;-64
2021/04/22 00:53:09;;;;;;;4.23;0.80;;;7.00;93.70;;;;;;4980205;28;20030;-64
2021/04/22 00:55:36;;;;;;;6.00;0.80;;;7.00;93.70;;;;;;4989868;28;20030;-64
2021/04/22 00:58:04;;;;;;;2.63;0.80;;;7.00;93.70;;;;;;4989821;28;20149;-64
2021/04/22 01:00:35;;;;;;;5.30;1.20;;;7.00;93.60;;;;;;4989837;28;21929;-64
2021/04/22 01:03:01;;;;;;;5.60;1.00;;;6.90;94.10;;;;;;4986563;28;20517;-64
2021/04/22 01:05:36;;;;;;;8.60;0.80;;;6.90;93.60;;;;;;4987740;28;20140;-64
2021/04/22 01:08:05;;;;;;;2.93;1.23;;;6.90;93.20;;;;;;4990175;28;20101;-64
2021/04/22 01:10:31;;;;;;;4.37;1.00;;;6.80;93.40;;;;;;4989687;28;20035;-64
2021/04/22 01:13:01;;;;;;;12.70;1.50;;;6.80;93.60;;;;;;4989117;28;20362;-63
2021/04/22 01:15:28;;;;;;;0.80;0.80;;;6.80;93.60;;;;;;4989203;28;20029;-66
2021/04/22 01:17:58;;;;;;;3.50;1.07;;;6.80;93.40;;;;;;4988643;28;20025;-64
2021/04/22 01:20:30;;;;;;;4.27;1.53;;;6.70;94.10;;;;;;4990188;28;20776;-64
2021/04/22 01:22:56;;;;;;;;;;;6.70;93.90;;;;;;4989611;28;20100;-64
2021/04/22 01:25:31;;;;;;;4.30;1.60;;;6.70;94.00;;;;;;4989072;28;19921;-64
2021/04/22 01:27:57;;;;;;;6.37;1.00;;;6.70;93.70;;;;;;4989441;28;20050;-64
2021/04/22 01:30:31;;;;;;;4.00;0.80;;;6.60;93.70;;;;;;4989447;28;20060;-64
2021/04/22 01:32:57;;;;;;;4.20;0.73;;;6.60;93.90;;;;;;4989512;28;20482;-64
2021/04/22 01:35:33;;;;;;;4.87;0.80;;;6.50;93.70;;;;;;4990115;28;20034;-64
2021/04/22 01:38:00;;;;;;;6.47;1.40;;;6.60;93.70;;;;;;4976762;28;20038;-64
2021/04/22 01:40:29;;;;;;;12.97;1.40;;;6.50;93.50;;;;;;4971527;28;20479;-64
2021/04/22 01:42:58;;;;;;;3.53;0.80;;;6.50;93.70;;;;;;4989765;28;20316;-64
2021/04/22 01:45:26;;;;;;;4.47;0.87;;;6.40;93.80;;;;;;4971961;28;20033;-64
2021/04/22 01:47:53;;;;;;;2.50;1.17;;;6.50;93.80;;;;;;4972645;28;20030;-64
2021/04/22 01:50:23;;;;;;;2.10;0.73;;;6.50;94.00;;;;;;4988876;28;20610;-64
2021/04/22 01:52:49;;;;;;;3.03;1.03;;;6.50;93.80;;;;;;4988636;28;20030;-64
2021/04/22 01:55:20;;;;;;;6.23;0.83;;;6.50;93.80;;;;;;4988726;28;20030;-64
2021/04/22 01:57:48;;;;;;;8.10;1.67;;;6.40;94.00;;;;;;4989766;28;20030;-64
2021/04/22 02:00:30;;;;;;;4.30;0.70;;;6.40;94.50;;;;;;4971520;28;20285;-64
2021/04/22 02:02:56;;;;;;;4.63;0.97;;;6.30;94.40;;;;;;4990629;28;20288;-64
2021/04/22 02:05:24;;;;;;;4.90;1.50;;;6.30;94.20;;;;;;4992760;28;20089;-64
2021/04/22 02:07:53;;;;;;;10.60;2.67;;;6.30;94.30;;;;;;4992120;28;20029;-64
2021/04/22 02:10:22;;;;;;;10.87;3.07;;;6.30;95.00;;;;;;4993215;28;20122;-64
2021/04/22 02:12:48;;;;;;;3.57;0.67;;;6.30;94.50;;;;;;4992518;28;20946;-64
2021/04/22 02:15:19;;;;;;;7.77;1.17;;;6.30;94.70;;;;;;4992646;28;20651;-64
2021/04/22 02:17:47;;;;;;;5.73;1.83;;;6.30;94.80;;;;;;4992567;28;20042;-64
2021/04/22 02:20:14;;;;;;;9.77;0.63;;;6.30;94.90;;;;;;4992168;28;20026;-64
2021/04/22 02:22:41;;;;;;;3.33;1.67;;;6.30;94.50;;;;;;4974984;28;20285;-64
2021/04/22 02:25:10;;;;;;;6.73;1.93;;;6.20;95.30;;;;;;4992329;28;20475;-64
2021/04/22 02:27:36;;;;;;;5.70;1.77;;;6.20;95.70;;;;;;4974137;28;20320;-64
2021/04/22 02:30:05;;;;;;;7.97;1.53;;;6.20;95.10;;;;;;4992146;28;20281;-64
2021/04/22 02:32:33;;;;;;;3.27;1.23;;;6.20;95.70;;;;;;4992069;28;20324;-64
2021/04/22 02:34:59;;;;;;;3.67;1.07;;;6.20;96.00;;;;;;4992331;28;20312;-64
2021/04/22 02:37:25;;;;;;;3.27;1.00;;;6.10;96.20;;;;;;4992437;28;20376;-64
2021/04/22 02:39:50;;;;;;;10.37;2.27;;;6.10;96.10;;;;;;4980867;28;20037;-64
2021/04/22 02:42:18;;;;;;;7.13;3.20;;;6.10;96.70;;;;;;4992209;28;20081;-64
2021/04/22 02:44:44;;;;;;;3.70;1.57;;;6.10;96.40;;;;;;4992394;28;20025;-64
2021/04/22 02:47:09;;;;;;;3.03;0.60;;;6.10;96.20;;;;;;4991587;28;20292;-64
2021/04/22 02:49:35;;;;;;;7.00;1.23;;;6.10;96.20;;;;;;4991643;28;20431;-64
2021/04/22 02:52:03;;;;;;;8.73;2.30;;;6.00;96.90;;;;;;4990228;28;20372;-64
2021/04/22 02:54:31;;;;;;;3.93;1.47;;;6.00;98.10;;;;;;4992363;28;20079;-64
2021/04/22 02:56:58;;;;;;;4.40;1.57;;;6.00;97.60;;;;;;4991887;28;20272;-64
2021/04/22 02:59:24;;;;;;;5.03;1.83;;;5.90;97.70;;;;;;4991509;28;20269;-64
2021/04/22 03:01:50;;;;;;;3.93;1.33;;;6.00;98.10;;;;;;4974077;28;20280;-64
2021/04/22 03:04:18;;;;;;;2.00;0.60;;;6.10;97.90;;;;;;4975195;28;20554;-64
2021/04/22 03:06:48;;;;;;;7.07;1.90;;;5.90;97.80;;;;;;4991242;28;20538;-64
2021/04/22 03:09:14;;;;;;;5.83;1.37;;;5.90;97.70;;;;;;4991284;28;20278;-64
2021/04/22 03:11:39;;;;;;;8.50;1.63;;;5.90;98.40;;;;;;4991483;28;20292;-64
2021/04/22 03:14:08;;;;;;;5.50;0.67;;;5.90;98.60;;;;;;4991118;28;20034;-64
2021/04/22 03:16:33;;;;;;;2.63;1.10;;;5.80;98.10;;;;;;4992475;28;20038;-64
2021/04/22 03:18:59;;;;;;;4.43;0.57;;;5.80;99.20;;;;;;4981664;28;20780;-63
2021/04/22 03:21:25;;;;;;;5.13;0.83;;;5.80;98.90;;;;;;4992073;28;20036;-63
2021/04/22 03:23:52;;;;;;;5.63;1.50;;;5.80;98.40;;;;;;4991415;28;20030;-65
2021/04/22 03:26:20;;;;;;;6.83;1.57;;;5.70;98.80;;;;;;4991209;28;20034;-65
2021/04/22 03:28:47;;;;;;;2.10;1.03;;;5.80;99.00;;;;;;4990943;28;20429;-63
2021/04/22 03:31:13;;;;;;;7.07;2.07;;;5.70;99.30;;;;;;4991372;28;20288;-63
2021/04/22 03:33:39;;;;;;;7.10;1.20;;;5.70;99.30;;;;;;4990699;28;20285;-64
2021/04/22 03:36:05;;;;;;;12.60;1.33;;;5.70;98.90;;;;;;4989354;28;20533;-64
2021/04/22 03:38:30;;;;;;;3.37;0.80;;;5.70;99.20;;;;;;4974328;28;20050;-64
2021/04/22 03:40:56;;;;;;;4.90;0.60;;;5.70;99.00;;;;;;4989578;28;20282;-64
2021/04/22 03:43:24;;;;;;;11.70;1.70;;;5.70;99.20;;;;;;4973448;28;20036;-64
2021/04/22 03:45:49;;;;;;;6.00;1.30;;;5.70;99.10;;;;;;4990795;28;20583;-64
2021/04/22 03:48:15;;;;;;;2.80;1.20;;;5.70;99.40;;;;;;4990550;28;20316;-64
2021/04/22 03:50:45;;;;;;;10.20;1.53;;;5.70;99.70;;;;;;4990645;28;20120;-64
2021/04/22 03:53:11;;;;;;;2.97;1.10;;;5.70;99.90;;;;;;4990668;28;20033;-64
2021/04/22 03:55:37;;;;;;;2.70;1.07;;;5.70;99.90;;;;;;4991562;28;20281;-64
2021/04/22 03:58:03;;;;;;;4.43;1.30;;;5.70;99.50;;;;;;4990525;28;20032;-64
2021/04/22 04:00:29;;;;;;;4.73;1.57;;;5.80;99.30;;;;;;4989168;28;20053;-64
2021/04/22 04:02:56;;;;;;;4.70;1.33;;;5.80;99.40;;;;;;4988755;28;20701;-64
2021/04/22 04:05:24;;;;;;;1.80;0.80;;;5.70;99.60;;;;;;4989004;28;20093;-63
2021/04/22 04:07:53;;;;;;;3.17;1.00;;;5.80;99.90;;;;;;4990710;28;20673;-63
2021/04/22 04:10:18;;;;;;;9.47;1.40;;;5.80;98.90;;;;;;4981936;28;21331;-64
2021/04/22 04:12:49;;;;;;;3.50;0.90;;;5.70;99.50;;;;;;4991142;28;20361;-64
2021/04/22 04:15:15;;;;;;;7.00;0.73;;;5.60;99.30;;;;;;4990704;28;20030;-64
2021/04/22 04:17:41;;;;;;;4.60;0.87;;;5.50;99.60;;;;;;4990408;28;20313;-64
2021/04/22 04:20:15;;;;;;;5.60;0.93;;;5.50;99.70;;;;;;4990058;28;20376;-65
2021/04/22 04:22:41;;;;;;;2.03;1.27;;;5.50;99.90;;;;;;4989279;28;20411;-64
2021/04/22 04:25:11;;;;;;;8.33;2.27;;;5.50;99.90;;;;;;4990801;28;20283;-64
2021/04/22 04:27:37;;;;;;;12.93;2.30;;;5.40;99.90;;;;;;4989637;28;20014;-64
2021/04/22 04:30:05;;;;;;;4.10;1.80;;;5.40;99.90;;;;;;4981748;28;20818;-63
2021/04/22 04:32:31;;;;;;;6.10;1.57;;;5.40;99.90;;;;;;4989944;28;20276;-64
2021/04/22 04:34:56;;;;;;;6.30;0.70;;;5.40;99.90;;;;;;4990067;28;20288;-64
2021/04/22 04:37:22;;;;;;;3.87;1.57;;;5.50;99.90;;;;;;4989834;28;20099;-64
2021/04/22 04:39:49;;;;;;;3.80;1.00;;;5.50;99.90;;;;;;4990077;28;20455;-64
2021/04/22 04:42:15;;;;;;;5.60;1.60;;;5.50;99.90;;;;;;4972779;28;20057;-64
2021/04/22 04:44:43;;;;;;;3.80;1.17;;;5.40;99.90;;;;;;4989986;28;20284;-64
2021/04/22 04:47:08;;;;;;;4.03;0.97;;;5.50;99.90;;;;;;4972076;28;20022;-65
2021/04/22 04:49:34;;;;;;;11.90;2.03;;;5.50;99.90;;;;;;4989196;28;20289;-64
2021/04/22 04:52:02;;;;;;;4.20;0.87;;;5.40;99.90;;;;;;4988611;28;20451;-63
2021/04/22 04:54:30;;;;;;;4.90;0.60;;;5.50;99.90;;;;;;4990081;28;20034;-64
2021/04/22 04:56:56;;;;;;;3.47;1.13;;;5.50;99.90;;;;;;4954770;28;20277;-64
2021/04/22 04:59:21;;;;;;;6.80;0.70;;;5.50;99.90;;;;;;4989951;28;20276;-64
2021/04/22 05:01:50;;;;;;;9.57;1.67;;;5.50;99.90;;;;;;4990252;28;20281;-64
2021/04/22 05:04:15;;;;;;;5.03;1.47;;;5.50;99.90;;;;;;4989994;28;20868;-64
2021/04/22 05:06:41;;;;;;;11.27;2.47;;;5.50;99.90;;;;;;4989762;28;20315;-63
2021/04/22 05:09:07;;;;;;;3.10;0.97;;;5.50;99.90;;;;;;4970643;28;20030;-64
2021/04/22 05:11:32;;;;;;;1.87;1.03;;;5.50;99.90;;;;;;4988179;28;20031;-64
2021/04/22 05:14:00;;;;;;;5.63;1.23;;;5.50;99.90;;;;;;4971996;28;20037;-64
2021/04/22 05:16:26;;;;;;;7.07;2.63;;;5.40;99.90;;;;;;4989457;28;20038;-64
2021/04/22 05:18:54;;;;;;;5.07;1.50;;;5.40;99.90;;;;;;4988921;28;20610;-64
2021/04/22 05:21:19;;;;;;;8.70;1.57;;;5.40;99.90;;;;;;4989473;28;20026;-64
2021/04/22 05:23:47;;;;;;;6.17;1.40;;;5.50;99.90;;;;;;4989513;28;20340;-64
2021/04/22 05:26:13;;;;;;;7.17;1.37;;;5.50;99.90;;;;;;4988612;28;20118;-64
2021/04/22 05:28:39;;;;;;;8.23;1.07;;;5.50;99.90;;;;;;4989830;28;20331;-64
2021/04/22 05:31:07;;;;;;;11.10;1.43;;;5.40;99.90;;;;;;4989830;28;20454;-64
2021/04/22 05:33:35;;;;;;;9.17;2.67;;;5.50;99.90;;;;;;4988169;28;20030;-64
2021/04/22 05:36:03;;;;;;;7.77;1.33;;;5.50;99.90;;;;;;4989930;28;20284;-65
2021/04/22 05:38:31;;;;;;;8.80;1.30;;;5.60;99.90;;;;;;4974476;28;20280;-65
2021/04/22 05:40:59;;;;;;;4.10;1.30;;;5.60;99.90;;;;;;4993516;28;20292;-65
2021/04/22 05:43:25;;;;;;;5.63;1.90;;;5.70;99.90;;;;;;4984413;28;20393;-65
2021/04/22 05:45:53;;;;;;;9.57;1.60;;;5.70;99.90;;;;;;4994062;28;20605;-64
2021/04/22 05:48:19;;;;;;;7.83;1.83;;;5.80;99.90;;;;;;4975210;28;20025;-65
2021/04/22 05:50:44;;;;;;;6.30;1.53;;;5.80;99.90;;;;;;4992750;28;20277;-64
2021/04/22 05:53:11;;;;;;;4.33;1.60;;;5.70;99.90;;;;;;4993069;28;20034;-65
2021/04/22 05:55:39;;;;;;;10.27;1.73;;;5.80;99.90;;;;;;4976273;28;20103;-65
2021/04/22 05:58:05;;;;;;;8.63;2.20;;;5.80;99.90;;;;;;4974991;28;20300;-63
2021/04/22 06:00:33;;;;;;;3.57;1.20;;;5.80;99.90;;;;;;4993306;28;20913;-64
2021/04/22 06:03:01;;;;;;;4.67;2.10;;;5.60;99.90;;;;;;4991942;28;20626;-64
2021/04/22 06:05:27;;;;;;;9.70;2.00;;;6.00;99.90;;;;;;4992521;28;20292;-64
2021/04/22 06:07:54;;;;;;;10.63;2.60;;;6.10;99.90;;;;;;4979939;28;20040;-64
2021/04/22 06:10:22;;;;;;;10.57;3.10;;;6.30;99.80;;;;;;4993254;28;20080;-64
2021/04/22 06:12:48;;;;;;;4.70;1.10;;;6.30;99.70;;;;;;4992762;28;20030;-64
2021/04/22 06:15:16;;;;;;;7.73;2.00;;;6.30;99.60;;;;;;4991995;28;20145;-64
2021/04/22 06:17:42;;;;;;;9.33;1.53;;;6.50;99.10;;;;;;4993101;28;20125;-64
2021/04/22 06:20:21;;;;;;;5.27;1.90;;;6.60;98.70;;;;;;4992516;28;20700;-64
2021/04/22 06:22:47;;;;;;;4.37;1.63;;;6.90;98.00;;;;;;4993004;28;20031;-66
2021/04/22 06:25:17;;;;;;;5.43;2.13;;;7.20;97.90;;;;;;4992221;28;20041;-65
2021/04/22 06:27:43;;;;;;;5.33;1.00;;;7.30;96.60;;;;;;4993239;28;20037;-65
2021/04/22 06:30:12;;;;;;;14.57;2.07;;;7.30;96.40;;;;;;4990935;28;20448;-65
2021/04/22 06:32:38;;;;;;;9.63;2.10;;;7.20;95.40;;;;;;4991688;28;20030;-65
2021/04/22 06:35:05;;;;;;;9.03;1.80;;;7.40;96.50;;;;;;4992757;28;20092;-65
2021/04/22 06:37:31;;;;;;;8.53;1.97;;;7.20;96.90;;;;;;4983131;28;20029;-65
2021/04/22 06:39:56;;;;;;;7.30;1.20;;;7.20;95.20;;;;;;4992360;28;20293;-65
2021/04/22 06:42:25;;;;;;;11.60;2.50;;;7.20;95.20;;;;;;4992977;28;20031;-65
2021/04/22 06:44:51;;;;;;;12.20;2.13;;;7.20;94.70;;;;;;4992385;28;20065;-65
2021/04/22 06:47:17;;;;;;;5.47;1.53;;;7.10;95.00;;;;;;4992256;28;21784;-65
2021/04/22 06:49:42;;;;;;;8.53;3.73;;;7.10;95.20;;;;;;4992917;28;20447;-65
2021/04/22 06:52:09;;;;;;;4.47;1.70;;;7.10;95.40;;;;;;4983920;28;20167;-65
2021/04/22 06:54:37;;;;;;;8.10;2.30;;;7.20;95.10;;;;;;4991236;28;20104;-65
2021/04/22 06:57:05;;;;;;;8.50;1.77;;;7.10;94.10;;;;;;4991586;28;20026;-66
2021/04/22 06:59:31;;;;;;;6.00;1.87;;;7.10;94.70;;;;;;4992458;28;20031;-65
2021/04/22 07:01:56;;;;;;;7.07;1.33;;;7.00;94.70;;;;;;4974828;28;20029;-65
2021/04/22 07:04:22;;;;;;;5.80;2.10;;;7.00;94.70;;;;;;4991071;28;20490;-65
2021/04/22 07:06:52;;;;;;;5.47;1.13;;;7.10;95.50;;;;;;4991654;28;20053;-65
2021/04/22 07:09:20;;;;;;;4.50;1.40;;;7.10;95.00;;;;;;4973944;28;20026;-65
2021/04/22 07:11:46;;;;;;;5.97;1.83;;;7.30;94.80;;;;;;4991705;28;20039;-65
2021/04/22 07:14:12;;;;;;;7.10;1.70;;;7.40;94.40;;;;;;4990150;28;20042;-66
2021/04/22 07:16:37;;;;;;;8.70;2.07;;;7.50;94.40;;;;;;4973743;28;20054;-65
2021/04/22 07:19:08;;;;;;;10.93;1.70;;;7.70;94.00;;;;;;4990819;28;20704;-65
2021/04/22 07:21:34;;;;;;;3.33;1.53;;;8.00;93.60;;;;;;4992034;28;20136;-65
2021/04/22 07:24:04;;;;;;;11.07;3.57;;;8.10;92.90;;;;;;4991001;28;20638;-65
2021/04/22 07:26:30;;;;;;;7.83;2.23;;;8.10;99.30;;;;;;4991840;28;20025;-65
2021/04/22 07:28:56;;;;;;;9.57;2.60;;;8.00;98.00;;;;;;4991746;28;20037;-65
2021/04/22 07:31:21;;;;;;;6.73;1.80;;;8.00;96.90;;;;;;4990692;28;21930;-65
2021/04/22 07:33:48;;;;;;;6.70;2.40;;;7.90;96.40;;;;;;4977204;28;20156;-65
2021/04/22 07:36:14;;;;;;;8.87;1.00;;;;;;;;;;4992262;28;20072;-65
2021/04/22 07:38:40;;;;;;;3.80;1.33;;;8.10;99.90;;;;;;4990515;28;20065;-65
2021/04/22 07:41:06;;;;;;;5.97;1.10;;;8.20;93.70;;;;;;4989201;28;20148;-64
2021/04/22 07:43:34;;;;;;;1.90;0.77;;;8.30;94.00;;;;;;4992416;28;20200;-64
2021/04/22 07:46:05;;;;;;;5.27;1.50;;;8.90;92.30;;;;;;4989649;28;20034;-64
2021/04/22 07:48:31;;;;;;;4.37;0.83;;;8.30;88.80;;;;;;4978096;28;20030;-65
2021/04/22 07:50:58;;;;;;;5.07;0.77;;;8.20;89.60;;;;;;4992506;28;20467;-65
2021/04/22 07:53:24;;;;;;;7.77;1.10;;;8.20;90.00;;;;;;4976802;28;20123;-65
2021/04/22 07:55:52;;;;;;;3.90;1.17;;;8.20;92.50;;;;;;4991149;28;20121;-65
2021/04/22 07:58:20;;;;;;;3.73;1.17;;;8.30;92.80;;;;;;4981651;28;20030;-65
2021/04/22 08:00:47;;;;;;;9.13;1.20;;;8.30;94.00;;;;;;4980971;28;20049;-65
2021/04/22 08:03:14;;;;;;;8.77;2.13;;;8.10;90.90;;;;;;4990692;28;20091;-65
2021/04/22 08:05:42;;;;;;;1.53;0.80;;;8.80;90.00;;;;;;4991001;28;20038;-66
2021/04/22 08:08:10;;;;;;;5.10;1.27;;;8.70;90.60;;;;;;4991285;28;20477;-65
2021/04/22 08:10:41;;;;;;;7.53;1.23;;;8.50;89.60;;;;;;4991648;28;20038;-64
2021/04/22 08:13:11;;;;;;;1.00;0.70;;;8.60;90.80;;;;;;4988519;28;20029;-65
2021/04/22 08:15:43;;;;;;;6.13;1.43;;;8.80;90.90;;;;;;4989323;28;20038;-66
2021/04/22 08:18:09;;;;;;;2.13;0.93;;;9.10;86.40;;;;;;4991473;28;20041;-64
2021/04/22 08:20:39;;;;;;;2.00;1.10;;;8.90;85.30;;;;;;4981742;28;20049;-64
2021/04/22 08:23:07;;;;;;;6.97;2.10;;;9.20;81.00;;;;;;4989518;28;20026;-65
2021/04/22 08:25:46;;;;;;;7.37;1.30;;;9.10;79.70;;;;;;4990347;28;20026;-65
2021/04/22 08:28:15;;;;;;;6.20;1.50;;;8.90;75.50;;;;;;4988889;28;20038;-65
2021/04/22 08:31:13;;;;;;;5.90;1.53;;;8.70;77.20;;;;;;4990947;28;20255;-65
2021/04/22 08:33:39;;;;;;;4.50;1.50;;;8.80;84.70;;;;;;4974631;28;20042;-65
2021/04/22 08:36:07;;;;;;;2.00;1.10;;;8.90;82.50;;;;;;4989152;28;20121;-65
2021/04/22 08:38:33;;;;;;;8.40;1.20;;;9.00;80.40;;;;;;4990393;28;20042;-65
2021/04/22 08:40:59;;;;;;;5.33;1.60;;;9.10;77.80;;;;;;4991514;28;20076;-65
2021/04/22 08:43:25;;;;;;;4.80;1.10;;;9.10;78.10;;;;;;4972521;28;20077;-65
2021/04/22 08:45:52;;;;;;;11.80;1.63;;;9.00;77.20;;;;;;4988582;28;20030;-65
2021/04/22 08:48:19;;;;;;;13.37;2.50;;;9.10;77.60;;;;;;4973540;28;20455;-65
2021/04/22 08:50:47;;;;;;;7.00;1.70;;;9.20;78.20;;;;;;4990046;28;20161;-65
2021/04/22 08:53:17;;;;;;;15.07;3.33;;;;;;;;;;4990437;28;20026;-65
2021/04/22 08:55:44;;;;;;;5.77;1.27;;;9.50;90.30;;;;;;4990231;28;20036;-64
2021/04/22 08:58:12;;;;;;;4.27;1.23;;;9.40;74.70;;;;;;4988716;28;20112;-65
2021/04/22 09:00:49;;;;;;;4.80;1.83;;;9.40;72.40;;;;;;4990094;28;20038;-65
2021/04/22 09:03:16;;;;;;;4.10;1.80;;;9.40;72.80;;;;;;4971449;28;20098;-65
2021/04/22 09:05:48;;;;;;;8.77;1.50;;;9.30;77.50;;;;;;4989184;28;20046;-65
2021/04/22 09:08:14;;;;;;;4.70;2.20;;;9.50;79.80;;;;;;4990055;28;20040;-65
2021/04/22 09:10:42;;;;;;;8.73;1.50;;;9.60;76.00;;;;;;4989408;28;20130;-65
2021/04/22 09:13:12;;;;;;;11.73;2.13;;;9.50;68.30;;;;;;4988202;28;20841;-65
2021/04/22 09:15:44;;;;;;;3.87;2.03;;;9.50;65.40;;;;;;4989477;28;20038;-65
2021/04/22 09:18:16;;;;;;;3.67;2.05;;;9.50;65.50;;;;;;4972641;28;20034;-65
2021/04/22 09:20:45;;;;;;;2.93;1.27;;;9.50;79.50;;;;;;4972400;28;20044;-65
2021/04/22 09:23:29;;;;;;;4.90;1.70;;;9.50;74.50;;;;;;4976872;28;20036;-65
2021/04/22 09:26:03;;;;;;;6.03;2.13;;;9.50;73.70;;;;;;4988917;28;20044;-65
2021/04/22 09:28:37;;;;;;;12.77;2.10;;;9.60;73.80;;;;;;4988534;28;20029;-65
2021/04/22 09:31:07;;;;;;;3.47;1.27;;;9.60;72.70;;;;;;4989144;28;20400;-64
2021/04/22 09:33:37;;;;;;;6.03;1.27;;;9.50;69.50;;;;;;4969768;28;20045;-65
2021/04/22 09:36:12;;;;;;;17.27;4.00;;;9.60;69.90;;;;;;4990517;28;20033;-65
2021/04/22 09:38:41;;;;;;;3.93;1.90;;;9.70;70.80;;;;;;4976424;28;20034;-66
2021/04/22 09:41:15;;;;;;;3.87;1.40;;;9.80;71.40;;;;;;4971627;28;20034;-67
2021/04/22 09:43:41;;;;;;;10.77;1.43;;;9.80;70.70;;;;;;4989745;28;20026;-65
2021/04/22 09:46:21;;;;;;;7.50;2.13;;;10.00;69.10;;;;;;4987942;28;20597;-66
2021/04/22 09:48:48;;;;;;;10.63;1.77;;;9.90;67.60;;;;;;4989223;28;20026;-67
2021/04/22 09:51:31;;;;;;;5.20;1.47;;;10.10;70.10;;;;;;4990249;28;20097;-64
2021/04/22 09:54:17;;;;;;;5.40;1.47;;;10.20;67.50;;;;;;4990106;28;20030;-65
2021/04/22 09:56:56;;;;;;;3.13;1.93;;;10.20;71.50;;;;;;4971093;28;20026;-65
2021/04/22 09:59:28;;;;;;;3.13;1.40;;;10.30;74.20;;;;;;4980734;28;20041;-64
2021/04/22 10:02:02;;;;;;;2.37;1.40;;;10.00;64.40;;;;;;4989091;28;20029;-64
2021/04/22 10:04:36;;;;;;;4.83;1.67;;;10.00;66.50;;;;;;4980196;28;20038;-65
2021/04/22 10:07:03;;;;;;;4.20;1.80;;;10.20;71.00;;;;;;4989200;28;20049;-65
2021/04/22 10:09:38;;;;;;;8.60;1.63;;;10.40;73.10;;;;;;4980438;28;20030;-65
2021/04/22 10:12:19;;;;;;;2.93;1.30;;;10.20;71.80;;;;;;4991021;28;20113;-64
2021/04/22 10:14:45;;;;;;;4.57;1.47;;;10.10;83.30;;;;;;4987954;28;20022;-65
2021/04/22 10:17:16;;;;;;;7.43;1.77;;;10.10;81.50;;;;;;4988051;28;20096;-65
2021/04/22 10:19:43;;;;;;;6.30;1.63;;;;;;;;;;4989697;28;20363;-64
2021/04/22 10:22:09;;;;;;;6.77;1.57;;;10.10;82.10;;;;;;4988160;28;20438;-65
2021/04/22 10:24:34;;;;;;;4.63;1.53;;;10.30;82.40;;;;;;4988489;28;20040;-67
2021/04/22 10:27:01;;;;;;;2.77;1.30;;;10.50;80.20;;;;;;4993288;28;20034;-65
2021/04/22 10:29:30;;;;;;;5.33;1.57;;;10.70;79.10;;;;;;4992375;28;20034;-65
2021/04/22 10:31:58;;;;;;;3.87;1.20;;;10.50;77.00;;;;;;4992644;28;21924;-65
2021/04/22 10:34:30;;;;;;;12.73;1.60;;;10.40;77.80;;;;;;4993292;28;20069;-65
2021/04/22 10:36:57;;;;;;;4.50;0.88;;;10.60;71.40;;;;;;4991940;28;20147;-65
2021/04/22 10:39:24;;;;;;;3.90;1.37;;;10.70;71.20;;;;;;4991682;28;20080;-66
2021/04/22 10:41:54;;;;;;;7.40;1.20;;;10.90;68.70;;;;;;4993194;28;20129;-65
2021/04/22 10:44:23;;;;;;;4.43;1.27;;;10.90;64.30;;;;;;4992244;28;20042;-65
2021/04/22 10:46:50;;;;;;;7.80;1.13;;;10.90;64.00;;;;;;4992441;28;20039;-65
2021/04/22 10:49:16;;;;;;;3.00;0.90;;;11.00;63.60;;;;;;4991951;28;20062;-65
2021/04/22 10:51:43;;;;;;;4.07;1.30;;;11.20;62.90;;;;;;4991233;28;20041;-64
2021/04/22 10:54:11;;;;;;;8.97;1.83;;;11.10;60.80;;;;;;4983520;28;20029;-65
2021/04/22 10:56:37;;;;;;;4.10;1.10;;;11.10;61.50;;;;;;4992031;28;20117;-65
2021/04/22 10:59:03;;;;;;;4.47;1.27;;;11.20;61.20;;;;;;4973789;28;20038;-65
2021/04/22 11:01:37;;;;;;;5.43;1.60;;;11.20;60.50;;;;;;4990497;28;20068;-65
2021/04/22 11:04:10;;;;;;;2.77;1.60;;;11.20;60.30;;;;;;4973988;28;20080;-65
2021/04/22 11:06:41;;;;;;;6.13;1.30;;;11.40;60.10;;;;;;4990051;28;20091;-64
2021/04/22 11:09:21;;;;;;;7.60;1.70;;;11.80;63.70;;;;;;4992010;28;20034;-65
2021/04/22 11:12:04;;;;;;;6.77;1.40;;;11.70;64.10;;;;;;4991797;28;20148;-64
2021/04/22 11:14:43;;;;;;;6.97;1.00;;;11.60;65.70;;;;;;4974114;28;20085;-64
2021/04/22 11:17:10;;;;;;;4.47;1.20;;;;;;;;;;4991463;28;20064;-64
2021/04/22 11:19:44;;;;;;;4.40;1.37;;;11.70;60.10;;;;;;4990451;28;20026;-65
2021/04/22 11:22:16;;;;;;;3.90;1.60;;;11.80;64.60;;;;;;4974848;28;20045;-65
2021/04/22 11:24:54;;;;;;;2.35;1.45;;;11.90;67.50;;;;;;4973581;28;20039;-65
2021/04/22 11:27:22;;;;;;;2.90;1.13;;;12.00;67.50;;;;;;4990591;28;20113;-65
2021/04/22 11:29:49;;;;;;;5.63;1.87;;;12.10;65.10;;;;;;4990628;28;20030;-65
2021/04/22 11:32:19;;;;;;;4.87;1.30;;;11.60;65.90;;;;;;4991585;28;20447;-66
2021/04/22 11:34:47;;;;;;;5.13;1.30;;;12.10;69.60;;;;;;4973367;28;20034;-66
2021/04/22 11:37:15;;;;;;;5.90;1.23;;;12.20;66.40;;;;;;4991006;28;20470;-66
2021/04/22 11:39:44;;;;;;;8.60;1.57;;;12.50;68.90;;;;;;4974041;28;20058;-66
2021/04/22 11:42:10;;;;;;;3.93;2.43;;;12.70;77.00;;;;;;4991636;28;20177;-65
2021/04/22 11:44:39;;;;;;;4.50;1.30;;;;;;;;;;4973822;28;20030;-65
2021/04/22 11:47:22;;;;;;;7.77;1.77;;;12.20;74.40;;;;;;4991854;28;20762;-65
2021/04/22 11:50:02;;;;;;;4.80;1.43;;;12.20;76.50;;;;;;4991269;28;20026;-65
2021/04/22 11:52:46;;;;;;;6.70;1.50;;;11.80;78.60;;;;;;4973195;28;20041;-64
2021/04/22 11:55:15;;;;;;;5.13;2.00;;;11.90;58.90;;;;;;4990439;28;20033;-65
2021/04/22 11:57:57;;;;;;;7.37;2.27;;;;;;;;;;4972334;28;20109;-65
2021/04/22 12:00:28;;;;;;;5.47;1.90;;;12.30;56.10;;;;;;4991151;28;20057;-65
2021/04/22 12:02:54;;;;;;;8.70;2.25;;;12.90;55.60;;;;;;4990272;28;20114;-65
2021/04/22 12:05:21;;;;;;;5.73;1.83;;;13.40;54.40;;;;;;4982078;28;20052;-64
2021/04/22 12:07:58;;;;;;;3.93;1.50;;;13.70;53.50;;;;;;4990632;28;20037;-66
2021/04/22 12:10:28;;;;;;;6.97;1.77;;;13.80;53.00;;;;;;4991013;28;20022;-65
2021/04/22 12:13:07;;;;;;;6.57;1.47;;;14.10;53.90;;;;;;4990282;28;20034;-65
2021/04/22 12:15:45;;;;;;;8.27;2.30;;;14.40;51.20;;;;;;4991029;28;20465;-65
2021/04/22 12:18:21;;;;;;;7.10;2.10;;;13.90;50.70;;;;;;4990670;28;20698;-64
2021/04/22 12:20:46;;;;;;;4.43;1.00;;;13.60;52.30;;;;;;4990825;28;20026;-65
2021/04/22 12:23:15;;;;;;;6.73;1.63;;;14.00;52.70;;;;;;4990014;28;20073;-65
2021/04/22 12:25:45;;;;;;;5.33;1.47;;;14.80;50.50;;;;;;4972412;28;20092;-64
2021/04/22 12:28:11;;;;;;;4.33;1.53;;;15.30;49.10;;;;;;4989464;28;20041;-65
2021/04/22 12:30:49;;;;;;;6.23;1.13;;;15.60;49.40;;;;;;4989561;28;20490;-65
2021/04/22 12:33:24;;;;;;;4.97;1.60;;;16.20;48.10;;;;;;4972856;28;20100;-64
2021/04/22 12:35:56;;;;;;;9.30;2.07;;;16.70;47.00;;;;;;4990719;28;20061;-66
2021/04/22 12:38:33;;;;;;;4.47;1.63;;;17.70;44.90;;;;;;4973070;28;20831;-65
2021/04/22 12:41:06;;;;;;;8.13;3.33;;;18.10;44.20;;;;;;4972912;28;20105;-65
2021/04/22 12:43:34;;;;;;;3.63;2.13;;;19.00;43.30;;;;;;4975760;28;20035;-65
2021/04/22 12:46:21;;;;;;;6.18;1.70;;;19.30;41.90;;;;;;4991372;28;20034;-66
2021/04/22 12:49:02;;;;;;;6.82;2.15;;;20.40;40.90;;;;;;4990249;28;20026;-67
2021/04/22 12:51:38;;;;;;;4.32;1.58;;;21.70;39.70;;;;;;4989839;28;20033;-66
2021/04/22 12:54:06;;;;;;;3.78;1.55;;;21.70;38.00;;;;;;4990778;28;20370;-64
2021/04/22 12:56:35;;;;;;;4.57;1.80;;;20.80;38.30;;;;;;4972744;28;20034;-66
2021/04/22 12:59:07;;;;;;;12.25;2.50;;;19.50;41.20;;;;;;4989870;28;20045;-66
2021/04/22 13:01:34;;;;;;;4.88;2.25;;;20.10;40.40;;;;;;4989118;28;20045;-66
2021/04/22 13:04:02;;;;;;;7.22;1.73;;;20.40;39.70;;;;;;4989673;28;20534;-66